createdAt,value
2022-10-18T00:00:55.294Z,15.43
2022-10-18T00:05:58.231Z,15.15
2022-10-18T00:11:00.142Z,16.33
2022-10-18T00:16:04.554Z,15.68
2022-10-18T00:21:10.648Z,15.63
2022-10-18T00:26:17.064Z,15.85
2022-10-18T00:31:21.836Z,16.80
2022-10-18T00:36:24.960Z,15.23
2022-10-18T00:41:29.632Z,13.80
2022-10-18T00:46:36.491Z,14.50
2022-10-18T00:51:44.226Z,15.05
2022-10-18T00:56:46.480Z,13.82
2022-10-18T01:01:48.162Z,14.55
2022-10-18T01:07:10.778Z,13.93
2022-10-18T01:12:43.187Z,14.02
2022-10-18T01:18:11.028Z,13.52
2022-10-18T01:23:24.803Z,12.95
2022-10-18T01:33:37.043Z,12.48
2022-10-18T01:38:41.148Z,12.90
2022-10-18T01:43:48.573Z,12.90
2022-10-18T01:48:58.931Z,14.95
2022-10-18T01:54:01.320Z,11.98
2022-10-18T01:59:41.494Z,14.18
2022-10-18T02:05:14.884Z,12.93
2022-10-18T02:10:16.720Z,13.07
2022-10-18T02:15:24.678Z,14.07
2022-10-18T02:20:42.200Z,17.38
2022-10-18T02:25:50.346Z,14.80
2022-10-18T02:31:27.882Z,17.05
2022-10-18T02:36:46.620Z,17.92
2022-10-18T02:41:52.692Z,15.05
2022-10-18T02:46:56.610Z,16.52
2022-10-18T02:51:59.342Z,16.00
2022-10-18T02:57:07.218Z,14.95
2022-10-18T03:07:32.135Z,14.60
2022-10-18T03:12:36.744Z,16.20
2022-10-18T03:17:38.960Z,13.65
2022-10-18T03:22:43.206Z,13.80
2022-10-18T03:27:48.617Z,14.70
2022-10-18T03:33:14.853Z,15.45
2022-10-18T03:38:17.966Z,16.02
2022-10-18T03:43:24.718Z,15.32
2022-10-18T03:48:33.423Z,16.10
2022-10-18T03:53:36.024Z,14.82
2022-10-18T03:58:39.153Z,13.32
2022-10-18T04:03:44.635Z,14.60
2022-10-18T04:08:47.620Z,13.32
2022-10-18T04:14:23.347Z,13.18
2022-10-18T04:19:30.414Z,15.25
2022-10-18T04:24:33.402Z,13.43
2022-10-18T04:29:47.587Z,15.32
2022-10-18T04:34:53.483Z,13.38
2022-10-18T04:39:56.353Z,13.95
2022-10-18T04:44:58.827Z,13.25
2022-10-18T04:50:04.027Z,13.98
2022-10-18T04:55:09.662Z,13.98
2022-10-18T05:00:12.368Z,15.75
2022-10-18T05:05:16.138Z,13.45
2022-10-18T05:10:32.050Z,12.73
2022-10-18T05:15:39.704Z,12.65
2022-10-18T05:20:41.645Z,14.43
2022-10-18T05:26:01.178Z,12.55
2022-10-18T05:31:09.243Z,12.43
2022-10-18T05:36:12.270Z,12.10
2022-10-18T05:41:15.084Z,11.55
2022-10-18T05:46:19.654Z,12.20
2022-10-18T05:51:21.900Z,13.10
2022-10-18T05:56:23.875Z,11.60
2022-10-18T06:01:33.660Z,12.65
2022-10-18T06:11:43.868Z,11.73
2022-10-18T06:16:45.633Z,9.98
2022-10-18T06:21:54.653Z,11.50
2022-10-18T06:26:57.982Z,9.40
2022-10-18T06:32:00.673Z,9.70
2022-10-18T06:37:03.112Z,9.50
2022-10-18T06:42:04.930Z,8.70
2022-10-18T06:47:14.152Z,9.15
2022-10-18T06:52:20.914Z,9.15
2022-10-18T06:57:22.600Z,8.52
2022-10-18T07:02:24.237Z,9.60
2022-10-18T07:07:25.998Z,9.15
2022-10-18T07:12:28.912Z,9.02
2022-10-18T07:17:32.122Z,8.55
2022-10-18T07:22:34.195Z,8.45
2022-10-18T07:27:40.539Z,8.68
2022-10-18T07:32:44.974Z,8.60
2022-10-18T07:37:46.950Z,8.25
2022-10-18T07:42:48.702Z,7.88
2022-10-18T07:47:57.564Z,7.03
2022-10-18T07:52:59.294Z,7.63
2022-10-18T07:58:01.320Z,7.45
2022-10-18T08:03:03.316Z,7.93
2022-10-18T08:08:16.401Z,8.48
2022-10-18T08:13:25.055Z,7.93
2022-10-18T08:18:28.879Z,8.57
2022-10-18T08:23:33.940Z,8.82
2022-10-18T08:28:53.737Z,8.48
2022-10-18T08:39:42.628Z,8.20
2022-10-18T08:45:37.409Z,8.55
2022-10-18T08:51:11.425Z,8.55
2022-10-18T08:56:27.791Z,7.57
2022-10-18T09:02:07.497Z,8.95
2022-10-18T09:07:41.137Z,9.15
2022-10-18T09:13:02.521Z,8.15
2022-10-18T09:18:37.563Z,8.65
2022-10-18T09:23:50.416Z,7.70
2022-10-18T09:29:36.097Z,8.38
2022-10-18T09:34:44.628Z,8.45
2022-10-18T09:40:12.180Z,8.00
2022-10-18T09:45:28.781Z,8.23
2022-10-18T09:50:42.303Z,8.75
2022-10-18T09:55:55.786Z,7.97
2022-10-18T10:00:59.469Z,7.72
2022-10-18T10:06:14.957Z,7.90
2022-10-18T10:11:45.403Z,8.02
2022-10-18T10:16:51.353Z,7.97
2022-10-18T10:22:14.540Z,7.60
2022-10-18T10:27:45.107Z,6.75
2022-10-18T10:32:58.425Z,6.43
2022-10-18T10:38:08.561Z,6.45
2022-10-18T10:43:38.198Z,6.65
2022-10-18T11:03:05.903Z,4.97
2022-10-18T11:08:47.677Z,4.18
2022-10-18T11:20:01.993Z,3.67
2022-10-18T11:25:36.708Z,3.75
2022-10-18T11:30:59.124Z,3.78
2022-10-18T11:36:16.273Z,3.35
2022-10-18T11:41:44.540Z,3.10
2022-10-18T11:47:12.269Z,2.35
2022-10-18T11:52:25.015Z,2.35
2022-10-18T11:57:38.799Z,2.60
2022-10-18T12:02:58.925Z,1.80
2022-10-18T12:08:09.873Z,1.85
2022-10-18T12:13:19.124Z,1.80
2022-10-18T12:18:25.899Z,1.67
2022-10-18T12:23:36.589Z,1.80
2022-10-18T12:28:46.140Z,2.17
2022-10-18T12:33:51.815Z,1.50
2022-10-18T12:39:09.262Z,1.35
2022-10-18T12:44:27.524Z,1.80
2022-10-18T12:49:32.248Z,1.42
2022-10-18T12:54:39.299Z,1.17
2022-10-18T12:59:42.031Z,1.15
2022-10-18T13:04:45.267Z,1.10
2022-10-18T13:10:15.406Z,0.80
2022-10-18T13:15:35.316Z,1.10
2022-10-18T13:20:36.801Z,1.30
2022-10-18T13:25:47.533Z,1.40
2022-10-18T13:30:51.849Z,1.10
2022-10-18T13:35:58.814Z,1.17
2022-10-18T13:41:02.711Z,0.98
2022-10-18T13:46:04.368Z,1.38
2022-10-18T13:51:27.353Z,1.40
2022-10-18T13:56:56.717Z,1.60
2022-10-18T14:02:15.061Z,1.40
2022-10-18T14:07:19.460Z,1.70
2022-10-18T14:12:28.635Z,1.67
2022-10-18T14:17:42.896Z,1.80
2022-10-18T14:23:11.748Z,1.38
2022-10-18T14:28:17.795Z,1.80
2022-10-18T14:33:32.584Z,1.33
2022-10-18T14:38:36.302Z,1.27
2022-10-18T14:43:37.812Z,1.58
2022-10-18T14:48:39.323Z,1.52
2022-10-18T14:53:41.867Z,1.20
2022-10-18T14:58:43.662Z,1.73
2022-10-18T15:03:46.711Z,1.42
2022-10-18T15:08:54.452Z,1.23
2022-10-18T15:13:57.778Z,1.50
2022-10-18T15:19:22.080Z,2.47
2022-10-18T15:24:26.539Z,1.52
2022-10-18T15:29:33.186Z,1.23
2022-10-18T15:34:35.678Z,1.45
2022-10-18T15:39:37.184Z,1.38
2022-10-18T15:44:51.170Z,1.83
2022-10-18T15:49:58.301Z,2.22
2022-10-18T15:55:01.279Z,1.48
2022-10-18T16:00:07.980Z,1.38
2022-10-18T16:05:20.701Z,1.55
2022-10-18T16:10:22.290Z,2.00
2022-10-18T16:15:24.076Z,1.80
2022-10-18T16:20:26.954Z,2.42
2022-10-18T16:25:28.567Z,2.30
2022-10-18T16:30:32.477Z,2.25
2022-10-18T16:35:35.646Z,2.75
2022-10-18T16:40:52.691Z,4.72
2022-10-18T16:45:54.784Z,3.38
2022-10-18T16:50:57.246Z,4.50
2022-10-18T16:56:01.065Z,1.80
2022-10-18T17:01:04.236Z,2.00
2022-10-18T17:06:29.461Z,2.20
2022-10-18T17:11:31.478Z,2.67
2022-10-18T17:16:36.711Z,5.18
2022-10-18T17:21:39.924Z,23.77
2022-10-18T17:26:41.742Z,15.55
2022-10-18T17:31:43.777Z,25.83
2022-10-18T17:36:46.658Z,9.38
2022-10-18T17:41:48.221Z,3.55
2022-10-18T17:46:50.449Z,2.45
2022-10-18T17:51:52.308Z,2.22
2022-10-18T17:56:55.238Z,2.42
2022-10-18T18:01:56.905Z,2.13
2022-10-18T18:06:59.881Z,3.28
2022-10-18T18:12:01.916Z,2.45
2022-10-18T18:17:03.825Z,2.30
2022-10-18T18:22:06.531Z,1.80
2022-10-18T18:27:08.797Z,1.40
2022-10-18T18:32:10.521Z,1.85
2022-10-18T18:37:12.212Z,2.10
2022-10-18T18:42:14.171Z,1.63
2022-10-18T18:47:16.132Z,2.15
2022-10-18T18:52:18.106Z,1.60
2022-10-18T18:57:19.704Z,2.63
2022-10-18T19:02:21.266Z,1.77
2022-10-18T19:07:23.547Z,1.58
2022-10-18T19:12:25.336Z,2.10
2022-10-18T19:17:26.905Z,2.63
2022-10-18T19:22:28.931Z,1.98
2022-10-18T19:27:31.085Z,2.00
2022-10-18T19:32:33.179Z,2.25
2022-10-18T19:37:35.079Z,2.97
2022-10-18T19:42:37.800Z,9.98
2022-10-18T19:47:41.248Z,9.77
2022-10-18T19:52:43.126Z,5.47
2022-10-18T19:57:44.617Z,4.95
2022-10-18T20:02:46.339Z,3.10
2022-10-18T20:07:48.072Z,2.30
2022-10-18T20:12:50.217Z,1.90
2022-10-18T20:17:51.835Z,1.80
2022-10-18T20:22:53.427Z,1.90
2022-10-18T20:27:55.044Z,1.52
2022-10-18T20:32:56.730Z,1.58
2022-10-18T20:37:58.378Z,1.27
2022-10-18T20:43:03.674Z,1.75
2022-10-18T20:48:05.662Z,1.73
2022-10-18T20:53:07.386Z,1.20
2022-10-18T20:58:10.943Z,2.05
2022-10-18T21:08:15.163Z,1.58
2022-10-18T21:13:17.010Z,1.77
2022-10-18T21:18:19.081Z,1.80
2022-10-18T21:23:21.255Z,1.48
2022-10-18T21:28:24.324Z,1.50
2022-10-18T21:33:26.238Z,2.13
2022-10-18T21:38:27.839Z,1.58
2022-10-18T21:43:29.438Z,1.63
2022-10-18T21:48:31.123Z,1.52
2022-10-18T21:53:33.016Z,1.05
2022-10-18T21:58:38.654Z,1.35
2022-10-18T22:03:40.429Z,0.90
2022-10-18T22:08:49.169Z,1.65
2022-10-18T22:13:52.832Z,1.42
2022-10-18T22:18:58.256Z,1.38
2022-10-18T22:24:03.078Z,1.50
2022-10-18T22:29:07.696Z,1.42
2022-10-18T22:34:18.751Z,1.40
2022-10-18T22:39:20.919Z,0.90
2022-10-18T22:44:22.688Z,1.88
2022-10-18T22:49:24.409Z,1.45
2022-10-18T22:54:26.335Z,1.45
2022-10-18T22:59:27.784Z,1.20
2022-10-18T23:04:29.305Z,1.42
2022-10-18T23:09:32.869Z,1.27
2022-10-18T23:14:34.762Z,1.40
2022-10-18T23:19:36.850Z,1.30
2022-10-18T23:24:38.469Z,1.38
2022-10-18T23:29:40.089Z,1.95
2022-10-18T23:34:42.119Z,1.38
2022-10-18T23:39:43.695Z,1.60
2022-10-18T23:44:45.386Z,1.50
2022-10-18T23:49:46.938Z,1.85
2022-10-18T23:54:48.603Z,1.67
2022-10-18T23:59:50.205Z,1.63
